Time,TemperatureF,DewpointF,PressureIn,WindDirection,WindDirectionDegrees,WindSpeedMPH,WindSpeedGustMPH,Humidity,HourlyPrecipIn,Conditions,Clouds,dailyrainin,SolarRadiationWatts/m^2,SoftwareType,DateUTC
2013-11-30 00:00:00,27.0,25.0,-100.00,North,359,3.0,5.0,90,-99.99,,,0.00,0.000000,,2013-11-30 07:00:00,
2013-11-30 00:21:00,28.0,26.0,-100.00,NNW,333,4.0,5.0,90,-99.99,,,0.00,0.000000,,2013-11-30 07:21:00,
2013-11-30 00:42:00,27.0,25.0,-100.00,North,359,3.0,5.0,90,-99.99,,,0.00,0.000000,,2013-11-30 07:42:00,
2013-11-30 00:52:00,27.0,25.0,-100.00,North,359,3.0,5.0,90,-99.99,,,0.00,0.000000,,2013-11-30 07:52:00,
2013-11-30 01:22:00,26.0,24.0,-100.00,NE,42,1.0,3.0,91,-99.99,,,-99.99,0.000000,,2013-11-30 08:22:00,
2013-11-30 01:32:00,26.0,24.0,-100.00,NE,42,1.0,3.0,91,-99.99,,,-99.99,0.000000,,2013-11-30 08:32:00,
2013-11-30 01:42:00,26.0,24.0,-100.00,NE,42,1.0,3.0,91,-99.99,,,-99.99,0.000000,,2013-11-30 08:42:00,
2013-11-30 02:21:00,24.0,23.0,-100.00,North,0,0.0,0.0,95,-99.99,,,0.00,0.000000,,2013-11-30 09:21:00,
2013-11-30 02:32:00,24.0,23.0,-100.00,North,0,0.0,0.0,95,-99.99,,,0.00,0.000000,,2013-11-30 09:32:00,
2013-11-30 02:43:00,24.0,23.0,-100.00,North,0,0.0,0.0,95,-99.99,,,0.00,0.000000,,2013-11-30 09:43:00,
2013-11-30 03:23:00,22.0,20.0,-100.00,ESE,109,0.0,1.0,92,-99.99,,,-99.99,0.000000,,2013-11-30 10:23:00,
2013-11-30 03:33:00,22.0,20.0,-100.00,ESE,109,0.0,1.0,92,-99.99,,,-99.99,0.000000,,2013-11-30 10:33:00,
2013-11-30 03:42:00,22.0,20.0,-100.00,ESE,109,0.0,1.0,92,-99.99,,,-99.99,0.000000,,2013-11-30 10:42:00,
2013-11-30 04:21:00,23.0,21.0,-100.00,ESE,113,1.0,3.0,94,-99.99,,,-99.99,0.000000,,2013-11-30 11:21:00,
2013-11-30 04:33:00,23.0,21.0,-100.00,ESE,113,1.0,3.0,94,-99.99,,,-99.99,0.000000,,2013-11-30 11:33:00,
2013-11-30 04:42:00,23.0,21.0,-100.00,ESE,113,1.0,3.0,94,-99.99,,,-99.99,0.000000,,2013-11-30 11:42:00,
2013-11-30 05:22:00,23.0,22.0,-100.00,SE,137,0.0,2.0,94,-99.99,,,0.00,0.000000,,2013-11-30 12:22:00,
2013-11-30 05:32:00,23.0,22.0,-100.00,SE,137,0.0,2.0,94,-99.99,,,0.00,0.000000,,2013-11-30 12:32:00,
2013-11-30 05:42:00,23.0,22.0,-100.00,SE,137,0.0,2.0,94,-99.99,,,0.00,0.000000,,2013-11-30 12:42:00,
2013-11-30 06:11:00,25.0,23.0,-100.00,SSE,152,0.0,3.0,95,-99.99,,,0.00,0.000000,,2013-11-30 13:11:00,
2013-11-30 06:21:00,25.0,23.0,-100.00,SSE,152,0.0,3.0,95,-99.99,,,0.00,0.000000,,2013-11-30 13:21:00,
2013-11-30 06:32:00,25.0,23.0,-100.00,SSE,152,0.0,3.0,95,-99.99,,,0.00,0.000000,,2013-11-30 13:32:00,
2013-11-30 06:42:00,25.0,23.0,-100.00,SSE,152,0.0,3.0,95,-99.99,,,0.00,0.000000,,2013-11-30 13:42:00,
2013-11-30 07:22:00,26.0,24.0,-100.00,SE,127,0.0,1.0,94,-99.99,,,0.00,0.000000,,2013-11-30 14:22:00,
2013-11-30 07:32:00,26.0,24.0,-100.00,SE,127,0.0,1.0,94,-99.99,,,0.00,0.000000,,2013-11-30 14:32:00,
2013-11-30 07:42:00,26.0,24.0,-100.00,SE,127,0.0,1.0,94,-99.99,,,0.00,0.000000,,2013-11-30 14:42:00,
2013-11-30 08:21:00,27.0,26.0,-100.00,ESE,116,1.0,3.0,96,-99.99,,,0.00,0.000000,,2013-11-30 15:21:00,
2013-11-30 08:33:00,27.0,26.0,-100.00,ESE,116,1.0,3.0,96,-99.99,,,0.00,0.000000,,2013-11-30 15:33:00,
2013-11-30 08:54:00,26.0,26.0,-100.00,NNE,13,0.0,2.0,96,-99.99,,,0.00,0.000000,,2013-11-30 15:54:00,
2013-11-30 09:03:00,26.0,26.0,-100.00,NNE,13,0.0,2.0,96,-99.99,,,0.00,0.000000,,2013-11-30 16:03:00,
2013-11-30 09:13:00,26.0,26.0,-100.00,NNE,13,0.0,2.0,96,-99.99,,,0.00,0.000000,,2013-11-30 16:13:00,
2013-11-30 09:53:00,29.0,28.0,-100.00,East,89,1.0,4.0,97,-99.99,,,0.00,29.049999,,2013-11-30 16:53:00,
2013-11-30 10:02:00,29.0,28.0,-100.00,East,89,1.0,4.0,97,-99.99,,,0.00,29.049999,,2013-11-30 17:02:00,
2013-11-30 10:11:00,29.0,28.0,-100.00,East,89,1.0,4.0,97,-99.99,,,0.00,29.049999,,2013-11-30 17:11:00,
2013-11-30 10:42:00,32.0,30.0,-100.00,SE,142,3.0,4.0,92,-99.99,,,-99.99,69.849998,,2013-11-30 17:42:00,
2013-11-30 10:53:00,32.0,30.0,-100.00,SE,142,3.0,4.0,92,-99.99,,,-99.99,69.849998,,2013-11-30 17:53:00,
2013-11-30 11:01:00,32.0,30.0,-100.00,SE,142,3.0,4.0,92,-99.99,,,-99.99,69.849998,,2013-11-30 18:01:00,
2013-11-30 11:12:00,32.0,30.0,-100.00,SE,142,3.0,4.0,92,-99.99,,,-99.99,69.849998,,2013-11-30 18:12:00,
2013-11-30 11:52:00,35.0,30.0,-100.00,SSW,206,0.0,0.0,82,-99.99,,,0.00,115.059998,,2013-11-30 18:52:00,
2013-11-30 12:01:00,35.0,30.0,-100.00,SSW,206,0.0,0.0,82,-99.99,,,0.00,115.059998,,2013-11-30 19:01:00,
2013-11-30 12:11:00,35.0,30.0,-100.00,SSW,206,0.0,0.0,82,-99.99,,,0.00,115.059998,,2013-11-30 19:11:00,
2013-11-30 12:42:00,38.0,31.0,-100.00,NW,322,0.0,2.0,76,-99.99,,,0.00,242.089996,,2013-11-30 19:42:00,
2013-11-30 12:52:00,38.0,31.0,-100.00,NW,322,0.0,2.0,76,-99.99,,,0.00,242.089996,,2013-11-30 19:52:00,
2013-11-30 13:02:00,38.0,31.0,-100.00,NW,322,0.0,2.0,76,-99.99,,,0.00,242.089996,,2013-11-30 20:02:00,
2013-11-30 13:11:00,38.0,31.0,-100.00,NW,322,0.0,2.0,76,-99.99,,,0.00,242.089996,,2013-11-30 20:11:00,
2013-11-30 13:52:00,41.0,31.0,-100.00,SSW,201,4.0,7.0,67,-99.99,,,0.00,242.320007,,2013-11-30 20:52:00,
2013-11-30 14:02:00,41.0,31.0,-100.00,SSW,201,4.0,7.0,67,-99.99,,,0.00,242.320007,,2013-11-30 21:02:00,
2013-11-30 14:11:00,41.0,31.0,-100.00,SSW,201,4.0,7.0,67,-99.99,,,0.00,242.320007,,2013-11-30 21:11:00,
2013-11-30 14:53:00,44.0,29.0,-100.00,SW,233,7.0,10.0,55,-99.99,,,0.00,122.029999,,2013-11-30 21:53:00,
2013-11-30 15:03:00,44.0,29.0,-100.00,SW,233,7.0,10.0,55,-99.99,,,0.00,122.029999,,2013-11-30 22:03:00,
2013-11-30 15:12:00,44.0,29.0,-100.00,SW,233,7.0,10.0,55,-99.99,,,0.00,122.029999,,2013-11-30 22:12:00,
2013-11-30 15:52:00,44.0,28.0,-100.00,SW,229,9.0,12.0,54,-99.99,,,-99.99,132.369995,,2013-11-30 22:52:00,
2013-11-30 16:02:00,44.0,28.0,-100.00,SW,229,9.0,12.0,54,-99.99,,,-99.99,132.369995,,2013-11-30 23:02:00,
2013-11-30 16:12:00,44.0,28.0,-100.00,SW,229,9.0,12.0,54,-99.99,,,-99.99,132.369995,,2013-11-30 23:12:00,
2013-11-30 16:42:00,44.0,30.0,-100.00,SW,217,8.0,12.0,55,-99.99,,,-99.99,81.239998,,2013-11-30 23:42:00,
2013-11-30 16:53:00,44.0,30.0,-100.00,SW,217,8.0,12.0,55,-99.99,,,-99.99,81.239998,,2013-11-30 23:53:00,
2013-11-30 17:02:00,44.0,30.0,-100.00,SW,217,8.0,12.0,55,-99.99,,,-99.99,81.239998,,2013-12-01 00:02:00,
2013-11-30 17:11:00,44.0,30.0,-100.00,SW,217,8.0,12.0,55,-99.99,,,-99.99,81.239998,,2013-12-01 00:11:00,
2013-11-30 17:42:00,43.0,27.0,-100.00,WSW,245,8.0,12.0,53,-99.99,,,-99.99,15.340000,,2013-12-01 00:42:00,
2013-11-30 17:52:00,43.0,27.0,-100.00,WSW,245,8.0,12.0,53,-99.99,,,-99.99,15.340000,,2013-12-01 00:52:00,
2013-11-30 18:01:00,43.0,27.0,-100.00,WSW,245,8.0,12.0,53,-99.99,,,-99.99,15.340000,,2013-12-01 01:01:00,
2013-11-30 18:11:00,43.0,27.0,-100.00,WSW,245,8.0,12.0,53,-99.99,,,-99.99,15.340000,,2013-12-01 01:11:00,
2013-11-30 18:42:00,40.0,28.0,-100.00,SW,236,5.0,7.0,62,-99.99,,,-99.99,0.580000,,2013-12-01 01:42:00,
2013-11-30 18:52:00,40.0,28.0,-100.00,SW,236,5.0,7.0,62,-99.99,,,-99.99,0.580000,,2013-12-01 01:52:00,
2013-11-30 19:01:00,40.0,28.0,-100.00,SW,236,5.0,7.0,62,-99.99,,,-99.99,0.580000,,2013-12-01 02:01:00,
2013-11-30 19:11:00,40.0,28.0,-100.00,SW,236,5.0,7.0,62,-99.99,,,-99.99,0.580000,,2013-12-01 02:11:00,
2013-11-30 19:42:00,41.0,31.0,-100.00,SW,225,10.0,17.0,67,-99.99,,,0.00,0.000000,,2013-12-01 02:42:00,
2013-11-30 19:52:00,41.0,31.0,-100.00,SW,225,10.0,17.0,67,-99.99,,,0.00,0.000000,,2013-12-01 02:52:00,
2013-11-30 20:01:00,41.0,31.0,-100.00,SW,225,10.0,17.0,67,-99.99,,,0.00,0.000000,,2013-12-01 03:01:00,
2013-11-30 20:11:00,41.0,31.0,-100.00,SW,225,10.0,17.0,67,-99.99,,,0.00,0.000000,,2013-12-01 03:11:00,
2013-11-30 20:44:00,40.0,33.0,-100.00,SSW,195,9.0,13.0,77,-99.99,,,0.00,0.000000,,2013-12-01 03:44:00,
2013-11-30 20:53:00,40.0,33.0,-100.00,SSW,195,9.0,13.0,77,-99.99,,,0.00,0.000000,,2013-12-01 03:53:00,
2013-11-30 21:02:00,-999.0,-99.9,-100.00,SSW,195,9.0,13.0,-999,-99.99,,,0.00,,,2013-12-01 04:02:00,
2013-11-30 21:12:00,40.0,33.0,-100.00,SSW,195,9.0,13.0,77,-99.99,,,0.00,0.000000,,2013-12-01 04:12:00,
2013-11-30 21:42:00,40.0,34.0,-100.00,SW,214,9.0,16.0,78,-99.99,,,0.00,0.000000,,2013-12-01 04:42:00,
2013-11-30 21:52:00,40.0,34.0,-100.00,SW,214,9.0,16.0,78,-99.99,,,0.00,0.000000,,2013-12-01 04:52:00,
2013-11-30 22:02:00,40.0,34.0,-100.00,SW,214,9.0,16.0,78,-99.99,,,0.00,0.000000,,2013-12-01 05:02:00,
2013-11-30 22:12:00,40.0,34.0,-100.00,SW,214,9.0,16.0,78,-99.99,,,0.00,0.000000,,2013-12-01 05:12:00,
2013-11-30 22:43:00,38.0,35.0,-100.00,SSW,199,11.0,17.0,89,-99.99,,,0.00,0.000000,,2013-12-01 05:43:00,
2013-11-30 22:53:00,38.0,35.0,-100.00,SSW,199,11.0,17.0,89,-99.99,,,0.00,0.000000,,2013-12-01 05:53:00,
2013-11-30 23:02:00,38.0,35.0,-100.00,SSW,199,11.0,17.0,89,-99.99,,,0.00,0.000000,,2013-12-01 06:02:00,
2013-11-30 23:12:00,38.0,35.0,-100.00,SSW,199,11.0,17.0,89,-99.99,,,0.00,0.000000,,2013-12-01 06:12:00,
2013-11-30 23:42:00,38.0,36.0,-100.00,South,185,8.0,12.0,92,-99.99,,,0.00,0.000000,,2013-12-01 06:42:00,
2013-11-30 23:52:00,38.0,36.0,-100.00,South,185,8.0,12.0,92,-99.99,,,0.00,0.000000,,2013-12-01 06:52:00,